Silver City, South Dakota
Current Conditions -  °F | °C
As of 12:58 AM on Thursday 27 Nov 2014 (Local Time) from KRCA Reporting Station
Overcast Overcast  
Wind Chill: 14°   Ceiling: 200
Heat Index: 22°   Visibility: 10mi
Dew Point: 21°   Wind: 7mph
Humidity: 94%   Direction: 110°ESE
Pressure: 30.23"   Gusts: NA
Location:  44.07°N, 103.324°W
Report Text: KRCA 270758Z AUTO 11006KT 10SM OVC002 M05/M06 A3023 RMK AO2 SLP281 T10551063 $
Loading
Personal Weather Stations






























Interactive Weather Map New forecast layout! Learn more

10-Day Weather Forecast

Advertisements
Track Severe Weather on mobile